createdAt,value
2018-07-24T00:00:22.741Z,79.75
2018-07-24T00:02:50.404Z,79.10
2018-07-24T00:05:18.130Z,79.54
2018-07-24T00:07:45.848Z,79.44
2018-07-24T00:10:13.574Z,79.79
2018-07-24T00:12:41.276Z,79.44
2018-07-24T00:15:09.024Z,79.93
2018-07-24T00:17:36.702Z,80.84
2018-07-24T00:20:05.592Z,80.06
2018-07-24T00:22:33.320Z,79.96
2018-07-24T00:25:01.012Z,79.26
2018-07-24T00:27:28.676Z,79.66
2018-07-24T00:29:56.393Z,80.62
2018-07-24T00:32:24.159Z,79.70
2018-07-24T00:34:51.852Z,79.98
2018-07-24T00:37:19.563Z,80.01
2018-07-24T00:39:47.204Z,80.26
2018-07-24T00:42:14.885Z,80.19
2018-07-24T00:44:49.279Z,81.44
2018-07-24T00:47:16.921Z,81.77
2018-07-24T00:49:44.727Z,81.77
2018-07-24T00:52:12.488Z,82.48
2018-07-24T00:54:40.138Z,82.43
2018-07-24T00:57:08.188Z,82.49
2018-07-24T00:59:35.936Z,80.77
2018-07-24T01:02:03.589Z,80.49
2018-07-24T01:04:31.214Z,80.66
2018-07-24T01:06:58.931Z,80.06
2018-07-24T01:09:26.564Z,79.74
2018-07-24T01:11:54.199Z,80.35
2018-07-24T01:14:21.953Z,80.22
2018-07-24T01:16:49.597Z,80.93
2018-07-24T01:19:17.281Z,81.14
2018-07-24T01:21:44.983Z,81.83
2018-07-24T01:24:12.668Z,82.29
2018-07-24T01:26:40.300Z,81.54
2018-07-24T01:29:07.978Z,82.13
2018-07-24T01:31:35.615Z,80.81
2018-07-24T01:34:03.300Z,80.75
2018-07-24T01:36:30.967Z,81.88
2018-07-24T01:38:58.732Z,82.46
2018-07-24T01:41:26.408Z,81.48
2018-07-24T01:43:54.039Z,82.63
2018-07-24T01:46:21.715Z,80.93
2018-07-24T01:48:49.428Z,81.91
2018-07-24T01:51:17.180Z,82.35
2018-07-24T01:53:44.835Z,82.40
2018-07-24T01:56:12.485Z,80.21
2018-07-24T01:58:40.192Z,80.68
2018-07-24T02:01:07.878Z,81.22
2018-07-24T02:03:35.540Z,82.25
2018-07-24T02:06:03.971Z,80.86
2018-07-24T02:08:32.119Z,81.91
2018-07-24T02:10:59.768Z,81.96
2018-07-24T02:13:27.507Z,81.37
2018-07-24T02:15:55.164Z,80.97
2018-07-24T02:18:22.857Z,81.80
2018-07-24T02:20:50.515Z,82.59
2018-07-24T02:23:18.240Z,82.52
2018-07-24T02:25:45.935Z,82.36
2018-07-24T02:28:13.628Z,82.22
2018-07-24T02:30:41.341Z,83.14
2018-07-24T02:33:08.990Z,81.47
2018-07-24T02:35:36.853Z,81.24
2018-07-24T02:38:04.537Z,81.96
2018-07-24T02:40:32.182Z,83.17
2018-07-24T02:42:59.835Z,82.51
2018-07-24T02:45:27.495Z,83.06
2018-07-24T02:47:55.197Z,81.24
2018-07-24T02:50:22.903Z,81.49
2018-07-24T02:52:50.487Z,81.49
2018-07-24T02:55:18.204Z,81.59
2018-07-24T02:57:45.880Z,81.97
2018-07-24T03:00:13.696Z,81.63
2018-07-24T03:02:41.396Z,81.37
2018-07-24T03:05:09.148Z,82.12
2018-07-24T03:07:36.840Z,82.09
2018-07-24T03:10:04.881Z,83.02
2018-07-24T03:12:32.547Z,83.84
2018-07-24T03:15:00.245Z,82.96
2018-07-24T03:17:27.923Z,82.24
2018-07-24T03:19:55.574Z,82.83
2018-07-24T03:22:23.256Z,83.35
2018-07-24T03:24:50.923Z,83.58
2018-07-24T03:27:18.621Z,84.70
2018-07-24T03:29:46.305Z,84.74
2018-07-24T03:32:13.982Z,84.25
2018-07-24T03:34:41.624Z,83.28
2018-07-24T03:37:09.390Z,83.45
2018-07-24T03:39:37.075Z,83.50
2018-07-24T03:42:04.779Z,83.18
2018-07-24T03:44:32.452Z,83.84
2018-07-24T03:47:00.133Z,84.21
2018-07-24T03:49:27.732Z,84.32
2018-07-24T03:51:55.332Z,83.16
2018-07-24T03:54:23.030Z,82.83
2018-07-24T03:56:50.702Z,82.40
2018-07-24T03:59:18.394Z,82.54
2018-07-24T04:01:46.131Z,82.19
2018-07-24T04:04:13.829Z,81.44
2018-07-24T04:06:41.546Z,80.27
2018-07-24T04:09:10.046Z,79.61
2018-07-24T04:11:37.955Z,78.56
2018-07-24T04:14:05.640Z,78.24
2018-07-24T04:16:33.323Z,77.45
2018-07-24T04:19:01.168Z,76.85
2018-07-24T04:21:28.832Z,75.95
2018-07-24T04:23:56.544Z,75.10
2018-07-24T04:26:24.266Z,74.27
2018-07-24T04:28:51.985Z,73.73
2018-07-24T04:31:19.733Z,73.08
2018-07-24T04:33:47.329Z,72.58
2018-07-24T04:36:15.031Z,72.46
2018-07-24T04:38:42.668Z,71.95
2018-07-24T04:41:10.400Z,70.79
2018-07-24T04:43:38.084Z,70.13
2018-07-24T04:46:05.878Z,68.54
2018-07-24T04:48:33.679Z,67.56
2018-07-24T04:51:01.349Z,66.83
2018-07-24T04:53:29.046Z,65.34
2018-07-24T04:55:56.786Z,63.93
2018-07-24T04:58:24.496Z,62.25
2018-07-24T05:00:52.272Z,61.31
2018-07-24T05:03:20.020Z,62.07
2018-07-24T05:05:47.727Z,62.10
2018-07-24T05:08:15.415Z,61.00
2018-07-24T05:10:43.076Z,59.41
2018-07-24T05:13:10.797Z,58.35
2018-07-24T05:15:38.513Z,58.07
2018-07-24T05:18:06.207Z,56.95
2018-07-24T05:20:33.901Z,56.43
2018-07-24T05:23:01.568Z,55.98
2018-07-24T05:25:29.242Z,56.16
2018-07-24T05:27:56.896Z,54.41
2018-07-24T05:32:58.923Z,53.66
2018-07-24T05:35:26.629Z,54.39
2018-07-24T05:37:54.261Z,51.34
2018-07-24T05:40:21.908Z,51.07
2018-07-24T05:42:49.626Z,51.71
2018-07-24T05:45:17.412Z,51.76
2018-07-24T05:47:45.117Z,50.95
2018-07-24T05:50:12.766Z,48.77
2018-07-24T05:52:47.059Z,49.32
2018-07-24T05:55:14.819Z,49.65
2018-07-24T05:57:42.504Z,48.64
2018-07-24T06:00:10.275Z,48.97
2018-07-24T06:02:38.176Z,45.78
2018-07-24T06:05:06.036Z,47.18
2018-07-24T06:07:33.758Z,48.18
2018-07-24T06:10:01.503Z,47.45
2018-07-24T06:12:29.245Z,46.15
2018-07-24T06:14:56.992Z,46.80
2018-07-24T06:17:24.737Z,44.45
2018-07-24T06:19:52.402Z,45.88
2018-07-24T06:22:20.105Z,43.25
2018-07-24T06:24:47.809Z,44.60
2018-07-24T06:27:15.491Z,44.33
2018-07-24T06:29:43.332Z,44.67
2018-07-24T06:32:11.147Z,43.23
2018-07-24T06:34:38.839Z,43.86
2018-07-24T06:37:06.634Z,44.36
2018-07-24T06:39:34.403Z,44.75
2018-07-24T06:42:02.094Z,43.09
2018-07-24T06:44:29.894Z,41.83
2018-07-24T06:46:57.644Z,41.62
2018-07-24T06:49:25.361Z,42.09
2018-07-24T06:51:53.219Z,41.33
2018-07-24T06:54:20.923Z,41.85
2018-07-24T06:56:48.614Z,40.85
2018-07-24T06:59:16.429Z,41.70
2018-07-24T07:01:44.166Z,41.51
2018-07-24T07:04:11.824Z,40.19
2018-07-24T07:06:39.532Z,38.77
2018-07-24T07:09:07.997Z,39.61
2018-07-24T07:11:35.756Z,39.54
2018-07-24T07:14:04.370Z,37.78
2018-07-24T07:16:32.136Z,38.61
2018-07-24T07:18:59.872Z,36.93
2018-07-24T07:21:27.599Z,37.66
2018-07-24T07:23:55.276Z,37.24
2018-07-24T07:26:23.557Z,37.14
2018-07-24T07:28:51.279Z,37.10
2018-07-24T07:31:19.685Z,36.06
2018-07-24T07:33:47.429Z,35.78
2018-07-24T07:36:15.255Z,36.51
2018-07-24T07:38:42.938Z,36.39
2018-07-24T07:41:10.578Z,36.06
2018-07-24T07:43:38.293Z,35.13
2018-07-24T07:46:06.089Z,34.53
2018-07-24T07:48:33.827Z,34.62
2018-07-24T07:51:01.530Z,35.44
2018-07-24T07:53:29.267Z,35.29
2018-07-24T07:55:57.731Z,34.84
2018-07-24T07:58:25.426Z,33.51
2018-07-24T08:00:53.217Z,33.55
2018-07-24T08:03:21.002Z,33.70
2018-07-24T08:05:48.693Z,32.92
2018-07-24T08:08:16.415Z,33.25
2018-07-24T08:10:44.970Z,32.78
2018-07-24T08:13:12.641Z,32.41
2018-07-24T08:15:40.428Z,33.21
2018-07-24T08:18:08.183Z,33.29
2018-07-24T08:20:35.926Z,31.64
2018-07-24T08:23:03.600Z,31.93
2018-07-24T08:25:31.313Z,33.37
2018-07-24T08:27:59.177Z,33.28
2018-07-24T08:30:27.017Z,33.50
2018-07-24T08:32:54.977Z,32.70
2018-07-24T08:35:22.805Z,31.62
2018-07-24T08:37:50.497Z,31.31
2018-07-24T08:40:18.193Z,32.16
2018-07-24T08:42:45.887Z,31.31
2018-07-24T08:45:13.647Z,31.11
2018-07-24T08:47:41.325Z,31.41
2018-07-24T08:50:09.066Z,31.77
2018-07-24T08:52:37.519Z,30.42
2018-07-24T08:55:06.337Z,30.83
2018-07-24T08:57:33.672Z,31.59
2018-07-24T09:00:01.291Z,30.37
2018-07-24T09:02:29.069Z,30.68
2018-07-24T09:04:56.789Z,31.37
2018-07-24T09:07:24.447Z,32.88
2018-07-24T09:09:52.143Z,32.69
2018-07-24T09:12:19.861Z,30.60
2018-07-24T09:14:47.560Z,32.11
2018-07-24T09:17:15.256Z,32.34
2018-07-24T09:19:43.036Z,31.78
2018-07-24T09:22:10.849Z,32.69
2018-07-24T09:24:38.588Z,32.94
2018-07-24T09:27:06.301Z,34.22
2018-07-24T09:29:34.092Z,33.51
2018-07-24T09:32:01.784Z,35.03
2018-07-24T09:34:29.458Z,34.72
2018-07-24T09:36:57.252Z,33.74
2018-07-24T09:39:24.977Z,34.71
2018-07-24T09:41:52.992Z,36.03
2018-07-24T09:44:20.705Z,35.73
2018-07-24T09:46:48.367Z,36.87
2018-07-24T09:49:16.905Z,37.98
2018-07-24T09:51:44.579Z,36.95
2018-07-24T09:54:12.322Z,37.28
2018-07-24T09:56:39.974Z,36.03
2018-07-24T09:59:07.664Z,36.44
2018-07-24T10:01:35.476Z,36.16
2018-07-24T10:04:03.937Z,36.01
2018-07-24T10:06:32.767Z,37.42
2018-07-24T10:09:00.400Z,37.61
2018-07-24T10:11:28.183Z,37.33
2018-07-24T10:13:56.008Z,38.28
2018-07-24T10:16:23.805Z,38.12
2018-07-24T10:18:51.588Z,36.95
2018-07-24T10:21:19.262Z,38.43
2018-07-24T10:23:46.980Z,37.26
2018-07-24T10:26:14.673Z,36.71
2018-07-24T10:28:42.365Z,38.07
2018-07-24T10:31:10.115Z,36.25
2018-07-24T10:33:37.759Z,35.90
2018-07-24T10:36:05.506Z,36.84
2018-07-24T10:38:33.153Z,36.21
2018-07-24T10:41:00.832Z,35.22
2018-07-24T10:43:28.488Z,35.78
2018-07-24T10:45:56.209Z,36.73
2018-07-24T10:48:23.915Z,37.41
2018-07-24T10:50:51.649Z,37.42
2018-07-24T10:53:19.856Z,37.36
2018-07-24T10:55:47.537Z,39.25
2018-07-24T10:58:15.281Z,38.11
2018-07-24T11:00:42.968Z,37.73
2018-07-24T11:03:10.648Z,37.62
2018-07-24T11:05:38.485Z,37.85
2018-07-24T11:08:06.698Z,38.20
2018-07-24T11:10:34.353Z,38.18
2018-07-24T11:13:02.092Z,37.75
2018-07-24T11:15:29.847Z,38.94
2018-07-24T11:17:57.564Z,39.36
2018-07-24T11:20:25.328Z,39.43
2018-07-24T11:22:53.257Z,38.49
2018-07-24T11:25:20.702Z,39.57
2018-07-24T11:27:48.422Z,40.08
2018-07-24T11:30:16.112Z,41.01
2018-07-24T11:32:43.885Z,40.38
2018-07-24T11:35:11.894Z,39.96
2018-07-24T11:37:41.571Z,39.93
2018-07-24T11:40:11.697Z,40.26
2018-07-24T11:42:39.563Z,40.80
2018-07-24T11:45:07.425Z,41.00
2018-07-24T11:47:35.164Z,39.67
2018-07-24T11:50:02.923Z,40.49
2018-07-24T11:52:30.644Z,39.86
2018-07-24T11:54:58.390Z,41.55
2018-07-24T11:57:26.096Z,38.85
2018-07-24T11:59:53.773Z,39.35
2018-07-24T12:02:21.486Z,38.75
2018-07-24T12:04:49.144Z,39.40
2018-07-24T12:07:16.857Z,38.38
2018-07-24T12:09:44.548Z,38.22
2018-07-24T12:12:12.237Z,38.11
2018-07-24T12:14:39.930Z,37.63
2018-07-24T12:17:07.648Z,39.05
2018-07-24T12:19:35.307Z,38.84
2018-07-24T12:22:03.008Z,35.96
2018-07-24T12:24:30.705Z,36.09
2018-07-24T12:26:58.448Z,36.71
2018-07-24T12:29:26.187Z,37.38
2018-07-24T12:31:53.905Z,36.56
2018-07-24T12:34:21.587Z,36.35
2018-07-24T12:36:49.263Z,36.60
2018-07-24T12:39:16.988Z,36.90
2018-07-24T12:41:44.724Z,36.07
2018-07-24T12:44:12.385Z,36.54
2018-07-24T12:46:40.107Z,37.05
2018-07-24T12:49:07.874Z,37.64
2018-07-24T12:51:35.544Z,37.42
2018-07-24T12:54:03.305Z,38.77
2018-07-24T12:56:31.023Z,38.27
2018-07-24T12:58:58.748Z,38.50
2018-07-24T13:01:26.503Z,37.93
2018-07-24T13:03:54.239Z,38.10
2018-07-24T13:06:22.009Z,37.89
2018-07-24T13:08:49.748Z,38.98
2018-07-24T13:11:17.489Z,39.95
2018-07-24T13:13:45.212Z,39.28
2018-07-24T13:16:12.892Z,38.71
2018-07-24T13:18:40.576Z,39.11
2018-07-24T13:21:08.299Z,40.05
2018-07-24T13:23:36.007Z,40.99
2018-07-24T13:26:03.782Z,42.17
2018-07-24T13:28:31.548Z,42.40
2018-07-24T13:30:59.329Z,41.76
2018-07-24T13:33:27.093Z,42.19
2018-07-24T13:35:54.939Z,42.46
2018-07-24T13:38:22.655Z,42.57
2018-07-24T13:40:50.352Z,42.73
2018-07-24T13:43:18.136Z,43.63
2018-07-24T13:45:45.789Z,43.43
2018-07-24T13:48:13.503Z,43.48
2018-07-24T13:50:41.209Z,43.53
2018-07-24T13:53:08.866Z,43.96
2018-07-24T13:55:36.531Z,44.35
2018-07-24T13:58:04.366Z,45.37
2018-07-24T14:00:32.043Z,44.78
2018-07-24T14:02:59.749Z,45.39
2018-07-24T14:05:27.476Z,45.92
2018-07-24T14:07:55.175Z,47.25
2018-07-24T14:10:22.859Z,46.29
2018-07-24T14:12:50.636Z,46.23
2018-07-24T14:15:18.334Z,46.55
2018-07-24T14:17:46.025Z,47.04
2018-07-24T14:20:13.784Z,46.75
2018-07-24T14:22:41.478Z,47.55
2018-07-24T14:25:09.382Z,47.00
2018-07-24T14:27:37.130Z,47.67
2018-07-24T14:30:05.231Z,47.91
2018-07-24T14:32:32.910Z,47.86
2018-07-24T14:35:00.638Z,48.77
2018-07-24T14:37:28.376Z,47.73
2018-07-24T14:39:56.204Z,48.20
2018-07-24T14:42:24.129Z,48.46
2018-07-24T14:44:51.878Z,49.07
2018-07-24T14:47:19.599Z,49.18
2018-07-24T14:49:47.349Z,50.17
2018-07-24T14:52:15.094Z,50.21
2018-07-24T14:54:42.837Z,50.52
2018-07-24T14:57:10.643Z,50.35
2018-07-24T14:59:38.342Z,50.11
2018-07-24T15:02:06.179Z,50.41
2018-07-24T15:04:33.921Z,50.58
2018-07-24T15:07:01.663Z,50.38
2018-07-24T15:09:29.525Z,51.75
2018-07-24T15:11:57.730Z,51.24
2018-07-24T15:14:25.487Z,51.62
2018-07-24T15:16:53.232Z,51.91
2018-07-24T15:19:20.908Z,52.62
2018-07-24T15:21:48.590Z,51.94
2018-07-24T15:24:16.453Z,51.63
2018-07-24T15:26:44.162Z,51.73
2018-07-24T15:29:11.820Z,52.04
2018-07-24T15:31:39.540Z,52.67
2018-07-24T15:34:07.255Z,53.68
2018-07-24T15:36:35.069Z,53.27
2018-07-24T15:39:05.345Z,52.47
2018-07-24T15:41:33.063Z,52.67
2018-07-24T15:44:00.908Z,52.52
2018-07-24T15:46:28.563Z,52.68
2018-07-24T15:48:56.273Z,52.53
2018-07-24T15:51:24.220Z,53.04
2018-07-24T15:53:51.967Z,53.34
2018-07-24T15:56:19.678Z,52.94
2018-07-24T15:58:47.476Z,53.83
2018-07-24T16:01:15.182Z,53.65
2018-07-24T16:03:42.933Z,53.08
2018-07-24T16:06:10.641Z,54.18
2018-07-24T16:08:38.468Z,53.73
2018-07-24T16:11:06.190Z,53.51
2018-07-24T16:13:33.894Z,53.75
2018-07-24T16:16:01.649Z,53.49
2018-07-24T16:18:29.400Z,52.81
2018-07-24T16:20:57.120Z,52.95
2018-07-24T16:23:24.837Z,53.69
2018-07-24T16:25:52.534Z,54.02
2018-07-24T16:28:20.269Z,53.63
2018-07-24T16:30:48.019Z,53.21
2018-07-24T16:33:15.739Z,53.64
2018-07-24T16:35:43.499Z,53.98
2018-07-24T16:38:37.559Z,53.71
2018-07-24T16:41:05.287Z,54.27
2018-07-24T16:43:33.025Z,53.86
2018-07-24T16:46:01.209Z,54.44
2018-07-24T16:48:28.973Z,53.99
2018-07-24T16:50:56.758Z,53.85
2018-07-24T16:53:24.515Z,55.09
2018-07-24T16:55:52.216Z,54.50
2018-07-24T16:58:19.960Z,54.56
2018-07-24T17:00:47.656Z,54.87
2018-07-24T17:03:15.481Z,54.74
2018-07-24T17:05:43.253Z,55.58
2018-07-24T17:08:10.968Z,55.20
2018-07-24T17:10:38.678Z,56.03
2018-07-24T17:13:06.823Z,55.95
2018-07-24T17:15:34.555Z,55.94
2018-07-24T17:18:02.400Z,56.81
2018-07-24T17:20:30.156Z,56.82
2018-07-24T17:22:57.876Z,57.29
2018-07-24T17:25:25.601Z,56.47
2018-07-24T17:27:53.423Z,57.44
2018-07-24T17:30:21.160Z,56.89
2018-07-24T17:32:48.900Z,57.80
2018-07-24T17:35:16.688Z,57.38
2018-07-24T17:37:44.467Z,57.10
2018-07-24T17:40:12.224Z,57.92
2018-07-24T17:42:39.988Z,58.60
2018-07-24T17:45:08.055Z,58.05
2018-07-24T17:47:35.752Z,58.45
2018-07-24T17:50:03.569Z,59.31
2018-07-24T17:52:31.307Z,59.04
2018-07-24T17:54:59.007Z,59.59
2018-07-24T17:57:26.693Z,59.91
2018-07-24T17:59:54.448Z,59.90
2018-07-24T18:02:22.251Z,59.54
2018-07-24T18:04:50.197Z,60.45
2018-07-24T18:07:18.075Z,60.25
2018-07-24T18:09:46.837Z,60.53
2018-07-24T18:12:14.536Z,61.81
2018-07-24T18:14:42.311Z,60.77
2018-07-24T18:17:10.110Z,61.58
2018-07-24T18:19:37.828Z,61.89
2018-07-24T18:22:05.607Z,61.55
2018-07-24T18:24:33.307Z,62.53
2018-07-24T18:27:01.034Z,62.38
2018-07-24T18:29:28.748Z,62.71
2018-07-24T18:31:56.471Z,62.64
2018-07-24T18:34:24.190Z,63.25
2018-07-24T18:36:51.902Z,62.83
2018-07-24T18:39:19.606Z,63.42
2018-07-24T18:41:47.285Z,63.66
2018-07-24T18:44:15.008Z,64.10
2018-07-24T18:46:42.772Z,64.09
2018-07-24T18:49:10.573Z,63.91
2018-07-24T18:51:38.428Z,64.21
2018-07-24T18:54:06.231Z,64.35
2018-07-24T18:56:33.996Z,64.56
2018-07-24T18:59:01.862Z,64.81
2018-07-24T19:01:29.604Z,65.23
2018-07-24T19:03:57.335Z,65.58
2018-07-24T19:06:25.037Z,66.09
2018-07-24T19:08:52.760Z,66.41
2018-07-24T19:11:20.519Z,66.27
2018-07-24T19:13:48.172Z,66.52
2018-07-24T19:16:15.908Z,67.26
2018-07-24T19:18:43.636Z,67.12
2018-07-24T19:21:11.343Z,67.84
2018-07-24T19:23:39.025Z,68.10
2018-07-24T19:26:06.829Z,67.90
2018-07-24T19:28:34.550Z,68.97
2018-07-24T19:31:02.358Z,68.41
2018-07-24T19:33:30.182Z,68.03
2018-07-24T19:35:58.000Z,67.70
2018-07-24T19:38:25.717Z,68.95
2018-07-24T19:40:53.465Z,69.24
2018-07-24T19:43:21.227Z,70.75
2018-07-24T19:45:48.930Z,70.50
2018-07-24T19:48:16.648Z,70.11
2018-07-24T19:50:44.348Z,70.08
2018-07-24T19:53:12.047Z,71.20
2018-07-24T19:55:39.854Z,71.40
2018-07-24T19:58:07.531Z,70.68
2018-07-24T20:00:35.315Z,71.62
2018-07-24T20:03:03.127Z,72.17
2018-07-24T20:05:30.860Z,72.47
2018-07-24T20:07:58.628Z,72.17
2018-07-24T20:10:26.342Z,72.64
2018-07-24T20:12:54.357Z,72.14
2018-07-24T20:15:22.034Z,71.91
2018-07-24T20:17:49.797Z,72.07
2018-07-24T20:20:17.476Z,73.31
2018-07-24T20:22:45.888Z,73.04
2018-07-24T20:25:13.631Z,72.91
2018-07-24T20:27:41.309Z,72.12
2018-07-24T20:30:09.256Z,72.36
2018-07-24T20:32:36.916Z,72.24
2018-07-24T20:35:04.886Z,72.27
2018-07-24T20:37:32.676Z,73.42
2018-07-24T20:40:00.452Z,73.69
2018-07-24T20:42:28.150Z,73.21
2018-07-24T20:44:56.063Z,73.31
2018-07-24T20:47:23.860Z,73.74
2018-07-24T20:49:51.597Z,73.56
2018-07-24T20:52:19.349Z,75.14
2018-07-24T20:54:47.055Z,74.94
2018-07-24T20:57:14.832Z,75.18
2018-07-24T20:59:42.497Z,75.69
2018-07-24T21:02:10.368Z,76.12
2018-07-24T21:04:38.088Z,75.95
2018-07-24T21:07:05.769Z,75.96
2018-07-24T21:09:33.508Z,75.47
2018-07-24T21:12:01.261Z,75.57
2018-07-24T21:14:28.950Z,75.63
2018-07-24T21:16:56.645Z,75.55
2018-07-24T21:19:24.352Z,75.18
2018-07-24T21:21:52.458Z,75.46
2018-07-24T21:24:20.287Z,75.49
2018-07-24T21:26:47.970Z,76.44
2018-07-24T21:29:15.623Z,77.79
2018-07-24T21:31:43.297Z,78.52
2018-07-24T21:34:10.988Z,79.27
2018-07-24T21:36:38.624Z,78.60
2018-07-24T21:39:08.343Z,79.23
2018-07-24T21:41:35.998Z,78.37
2018-07-24T21:44:03.833Z,78.52
2018-07-24T21:46:31.490Z,78.83
2018-07-24T21:48:59.251Z,78.55
2018-07-24T21:51:26.967Z,78.63
2018-07-24T21:53:54.843Z,78.82
2018-07-24T21:56:22.529Z,79.60
2018-07-24T21:58:50.217Z,78.30
2018-07-24T22:01:18.409Z,78.77
2018-07-24T22:03:46.723Z,78.53
2018-07-24T22:06:14.381Z,78.33
2018-07-24T22:08:42.169Z,78.00
2018-07-24T22:11:09.884Z,78.86
2018-07-24T22:13:37.592Z,78.88
2018-07-24T22:16:05.334Z,78.33
2018-07-24T22:18:33.119Z,77.67
2018-07-24T22:21:00.817Z,78.79
2018-07-24T22:23:28.514Z,78.98
2018-07-24T22:25:56.175Z,79.01
2018-07-24T22:28:23.850Z,79.14
2018-07-24T22:30:51.636Z,79.10
2018-07-24T22:33:19.349Z,78.77
2018-07-24T22:35:47.049Z,78.01
2018-07-24T22:38:14.712Z,78.67
2018-07-24T22:40:42.375Z,77.43
2018-07-24T22:43:10.045Z,77.16
2018-07-24T22:45:37.737Z,77.39
2018-07-24T22:48:05.357Z,78.43
2018-07-24T22:50:33.085Z,79.11
2018-07-24T22:53:00.732Z,79.41
2018-07-24T22:55:28.401Z,78.47
2018-07-24T22:57:56.111Z,79.29
2018-07-24T23:00:23.928Z,78.30
2018-07-24T23:02:51.588Z,77.78
2018-07-24T23:05:19.314Z,79.30
2018-07-24T23:07:46.951Z,79.31
2018-07-24T23:10:14.608Z,79.96
2018-07-24T23:12:42.263Z,79.31
2018-07-24T23:15:09.932Z,79.52
2018-07-24T23:17:37.788Z,78.94
2018-07-24T23:20:05.521Z,78.67
2018-07-24T23:22:33.181Z,78.69
2018-07-24T23:25:00.913Z,79.09
2018-07-24T23:27:28.557Z,79.67
2018-07-24T23:29:56.194Z,79.02
2018-07-24T23:32:23.869Z,78.92
2018-07-24T23:34:51.536Z,78.63
2018-07-24T23:37:19.207Z,79.20
2018-07-24T23:39:46.891Z,79.35
2018-07-24T23:42:14.565Z,78.35
2018-07-24T23:44:42.181Z,78.99
2018-07-24T23:47:09.881Z,78.73
2018-07-24T23:49:37.571Z,79.92
2018-07-24T23:52:05.388Z,79.57
2018-07-24T23:54:33.025Z,78.92
2018-07-24T23:57:00.645Z,79.86
2018-07-24T23:59:28.324Z,80.66
